sensor_id;sensor_type;location;lat;lon;timestamp;P1;durP1;ratioP1;P2;durP2;ratioP2
71172;SDS011;58875;51.996;4.504;2023-02-01T00:02:03;12.70;;;8.13;;
71172;SDS011;58875;51.996;4.504;2023-02-01T00:04:29;12.14;;;7.78;;
71172;SDS011;58875;51.996;4.504;2023-02-01T00:06:55;13.28;;;8.45;;
71172;SDS011;58875;51.996;4.504;2023-02-01T00:09:21;14.36;;;9.12;;
71172;SDS011;58875;51.996;4.504;2023-02-01T00:11:46;12.96;;;8.32;;
71172;SDS011;58875;51.996;4.504;2023-02-01T00:14:12;11.91;;;7.72;;
71172;SDS011;58875;51.996;4.504;2023-02-01T00:16:38;12.42;;;7.99;;
71172;SDS011;58875;51.996;4.504;2023-02-01T00:19:06;12.58;;;7.99;;
71172;SDS011;58875;51.996;4.504;2023-02-01T00:21:34;13.54;;;8.52;;
71172;SDS011;58875;51.996;4.504;2023-02-01T00:24:00;14.38;;;9.11;;
71172;SDS011;58875;51.996;4.504;2023-02-01T00:26:39;13.95;;;8.81;;
71172;SDS011;58875;51.996;4.504;2023-02-01T00:29:09;12.66;;;8.12;;
71172;SDS011;58875;51.996;4.504;2023-02-01T00:31:40;11.77;;;7.67;;
71172;SDS011;58875;51.996;4.504;2023-02-01T00:34:07;12.99;;;8.37;;
71172;SDS011;58875;51.996;4.504;2023-02-01T00:36:34;12.96;;;8.28;;
71172;SDS011;58875;51.996;4.504;2023-02-01T00:38:59;13.36;;;8.50;;
71172;SDS011;58875;51.996;4.504;2023-02-01T00:41:25;12.35;;;7.98;;
71172;SDS011;58875;51.996;4.504;2023-02-01T00:43:51;11.86;;;7.67;;
71172;SDS011;58875;51.996;4.504;2023-02-01T00:46:17;12.59;;;8.14;;
71172;SDS011;58875;51.996;4.504;2023-02-01T00:48:44;12.81;;;8.22;;
71172;SDS011;58875;51.996;4.504;2023-02-01T00:51:11;12.04;;;7.72;;
71172;SDS011;58875;51.996;4.504;2023-02-01T00:53:39;13.51;;;8.54;;
71172;SDS011;58875;51.996;4.504;2023-02-01T00:56:05;14.06;;;8.91;;
71172;SDS011;58875;51.996;4.504;2023-02-01T00:58:32;13.30;;;8.42;;
71172;SDS011;58875;51.996;4.504;2023-02-01T01:03:32;13.79;;;8.73;;
71172;SDS011;58875;51.996;4.504;2023-02-01T01:05:59;14.01;;;8.87;;
71172;SDS011;58875;51.996;4.504;2023-02-01T01:08:26;14.03;;;8.87;;
71172;SDS011;58875;51.996;4.504;2023-02-01T01:10:52;14.49;;;9.13;;
71172;SDS011;58875;51.996;4.504;2023-02-01T01:13:18;13.75;;;8.73;;
71172;SDS011;58875;51.996;4.504;2023-02-01T01:15:43;13.38;;;8.59;;
71172;SDS011;58875;51.996;4.504;2023-02-01T01:18:09;14.98;;;9.46;;
71172;SDS011;58875;51.996;4.504;2023-02-01T01:20:35;13.76;;;8.76;;
71172;SDS011;58875;51.996;4.504;2023-02-01T01:23:03;13.91;;;8.91;;
71172;SDS011;58875;51.996;4.504;2023-02-01T01:25:29;14.41;;;9.17;;
71172;SDS011;58875;51.996;4.504;2023-02-01T01:28:01;14.55;;;9.28;;
71172;SDS011;58875;51.996;4.504;2023-02-01T01:30:27;14.52;;;9.34;;
71172;SDS011;58875;51.996;4.504;2023-02-01T01:32:53;15.17;;;9.58;;
71172;SDS011;58875;51.996;4.504;2023-02-01T01:35:18;13.96;;;8.80;;
71172;SDS011;58875;51.996;4.504;2023-02-01T01:37:44;15.82;;;9.89;;
71172;SDS011;58875;51.996;4.504;2023-02-01T01:40:09;16.71;;;10.40;;
71172;SDS011;58875;51.996;4.504;2023-02-01T01:42:42;14.26;;;8.98;;
71172;SDS011;58875;51.996;4.504;2023-02-01T01:45:19;15.16;;;9.56;;
71172;SDS011;58875;51.996;4.504;2023-02-01T01:47:50;14.76;;;9.46;;
71172;SDS011;58875;51.996;4.504;2023-02-01T01:50:21;15.83;;;10.14;;
71172;SDS011;58875;51.996;4.504;2023-02-01T01:52:52;15.56;;;9.86;;
71172;SDS011;58875;51.996;4.504;2023-02-01T01:55:22;14.90;;;9.51;;
71172;SDS011;58875;51.996;4.504;2023-02-01T01:57:53;15.66;;;10.03;;
71172;SDS011;58875;51.996;4.504;2023-02-01T02:00:24;14.86;;;9.65;;
71172;SDS011;58875;51.996;4.504;2023-02-01T02:02:53;14.59;;;9.42;;
71172;SDS011;58875;51.996;4.504;2023-02-01T02:05:25;14.34;;;9.42;;
71172;SDS011;58875;51.996;4.504;2023-02-01T02:07:52;15.60;;;10.00;;
71172;SDS011;58875;51.996;4.504;2023-02-01T02:10:21;17.05;;;10.68;;
71172;SDS011;58875;51.996;4.504;2023-02-01T02:13:07;18.45;;;11.57;;
71172;SDS011;58875;51.996;4.504;2023-02-01T02:15:34;15.91;;;10.14;;
71172;SDS011;58875;51.996;4.504;2023-02-01T02:18:13;15.29;;;9.76;;
71172;SDS011;58875;51.996;4.504;2023-02-01T02:34:34;15.92;;;10.10;;
71172;SDS011;58875;51.996;4.504;2023-02-01T02:40:04;15.43;;;9.88;;
71172;SDS011;58875;51.996;4.504;2023-02-01T02:45:54;15.51;;;10.01;;
71172;SDS011;58875;51.996;4.504;2023-02-01T02:49:05;14.42;;;9.33;;
71172;SDS011;58875;51.996;4.504;2023-02-01T02:51:56;13.82;;;8.95;;
71172;SDS011;58875;51.996;4.504;2023-02-01T02:55:00;14.49;;;9.37;;
71172;SDS011;58875;51.996;4.504;2023-02-01T02:57:32;14.52;;;9.38;;
71172;SDS011;58875;51.996;4.504;2023-02-01T03:00:22;15.42;;;9.85;;
71172;SDS011;58875;51.996;4.504;2023-02-01T03:03:12;15.10;;;9.66;;
71172;SDS011;58875;51.996;4.504;2023-02-01T03:05:56;13.80;;;8.96;;
71172;SDS011;58875;51.996;4.504;2023-02-01T03:08:23;14.57;;;9.48;;
71172;SDS011;58875;51.996;4.504;2023-02-01T03:11:06;12.90;;;8.39;;
71172;SDS011;58875;51.996;4.504;2023-02-01T03:16:22;13.23;;;8.66;;
71172;SDS011;58875;51.996;4.504;2023-02-01T03:24:07;14.76;;;9.64;;
71172;SDS011;58875;51.996;4.504;2023-02-01T03:26:42;15.89;;;10.18;;
71172;SDS011;58875;51.996;4.504;2023-02-01T03:29:17;15.45;;;9.89;;
71172;SDS011;58875;51.996;4.504;2023-02-01T03:31:49;13.98;;;9.08;;
71172;SDS011;58875;51.996;4.504;2023-02-01T03:34:15;15.19;;;9.80;;
71172;SDS011;58875;51.996;4.504;2023-02-01T03:36:43;14.95;;;9.69;;
71172;SDS011;58875;51.996;4.504;2023-02-01T03:39:17;15.00;;;9.65;;
71172;SDS011;58875;51.996;4.504;2023-02-01T03:41:51;14.17;;;9.25;;
71172;SDS011;58875;51.996;4.504;2023-02-01T03:47:16;13.04;;;8.52;;
71172;SDS011;58875;51.996;4.504;2023-02-01T03:49:49;12.85;;;8.53;;
71172;SDS011;58875;51.996;4.504;2023-02-01T03:52:28;13.76;;;9.09;;
71172;SDS011;58875;51.996;4.504;2023-02-01T03:54:59;13.67;;;8.97;;
71172;SDS011;58875;51.996;4.504;2023-02-01T03:57:28;15.38;;;9.98;;
71172;SDS011;58875;51.996;4.504;2023-02-01T04:00:10;14.54;;;9.37;;
71172;SDS011;58875;51.996;4.504;2023-02-01T04:02:42;13.91;;;9.04;;
71172;SDS011;58875;51.996;4.504;2023-02-01T04:05:08;14.32;;;9.35;;
71172;SDS011;58875;51.996;4.504;2023-02-01T04:07:34;14.29;;;9.31;;
71172;SDS011;58875;51.996;4.504;2023-02-01T04:09:59;13.79;;;9.12;;
71172;SDS011;58875;51.996;4.504;2023-02-01T04:12:25;12.44;;;8.41;;
71172;SDS011;58875;51.996;4.504;2023-02-01T04:14:50;12.54;;;8.54;;
71172;SDS011;58875;51.996;4.504;2023-02-01T04:17:16;12.03;;;8.18;;
71172;SDS011;58875;51.996;4.504;2023-02-01T04:19:42;12.82;;;8.60;;
71172;SDS011;58875;51.996;4.504;2023-02-01T04:22:07;13.68;;;9.00;;
71172;SDS011;58875;51.996;4.504;2023-02-01T04:24:33;14.04;;;9.18;;
71172;SDS011;58875;51.996;4.504;2023-02-01T04:26:58;13.89;;;9.10;;
71172;SDS011;58875;51.996;4.504;2023-02-01T04:29:24;13.04;;;8.64;;
71172;SDS011;58875;51.996;4.504;2023-02-01T04:31:49;12.58;;;8.38;;
71172;SDS011;58875;51.996;4.504;2023-02-01T04:34:15;11.79;;;7.90;;
71172;SDS011;58875;51.996;4.504;2023-02-01T04:36:40;12.46;;;8.31;;
71172;SDS011;58875;51.996;4.504;2023-02-01T04:39:06;12.67;;;8.47;;
71172;SDS011;58875;51.996;4.504;2023-02-01T04:41:31;12.91;;;8.68;;
71172;SDS011;58875;51.996;4.504;2023-02-01T04:43:57;13.91;;;9.07;;
71172;SDS011;58875;51.996;4.504;2023-02-01T04:46:22;13.92;;;9.17;;
71172;SDS011;58875;51.996;4.504;2023-02-01T04:48:48;12.21;;;8.15;;
71172;SDS011;58875;51.996;4.504;2023-02-01T04:51:13;11.75;;;7.89;;
71172;SDS011;58875;51.996;4.504;2023-02-01T04:53:40;11.89;;;8.10;;
71172;SDS011;58875;51.996;4.504;2023-02-01T04:56:06;11.77;;;8.08;;
71172;SDS011;58875;51.996;4.504;2023-02-01T04:58:31;11.34;;;7.79;;
71172;SDS011;58875;51.996;4.504;2023-02-01T05:00:57;12.04;;;8.31;;
71172;SDS011;58875;51.996;4.504;2023-02-01T05:03:23;11.79;;;8.02;;
71172;SDS011;58875;51.996;4.504;2023-02-01T05:05:48;11.75;;;8.06;;
71172;SDS011;58875;51.996;4.504;2023-02-01T05:08:14;13.04;;;8.98;;
71172;SDS011;58875;51.996;4.504;2023-02-01T05:10:40;10.41;;;7.32;;
71172;SDS011;58875;51.996;4.504;2023-02-01T05:13:05;10.63;;;7.38;;
71172;SDS011;58875;51.996;4.504;2023-02-01T05:15:52;11.09;;;7.71;;
71172;SDS011;58875;51.996;4.504;2023-02-01T05:18:18;10.57;;;7.47;;
71172;SDS011;58875;51.996;4.504;2023-02-01T05:20:43;10.45;;;7.38;;
71172;SDS011;58875;51.996;4.504;2023-02-01T05:23:09;10.83;;;7.53;;
71172;SDS011;58875;51.996;4.504;2023-02-01T05:25:34;12.47;;;8.47;;
71172;SDS011;58875;51.996;4.504;2023-02-01T05:28:00;13.61;;;9.03;;
71172;SDS011;58875;51.996;4.504;2023-02-01T05:30:25;13.27;;;8.72;;
71172;SDS011;58875;51.996;4.504;2023-02-01T05:32:51;11.89;;;8.00;;
71172;SDS011;58875;51.996;4.504;2023-02-01T05:35:17;13.23;;;8.91;;
71172;SDS011;58875;51.996;4.504;2023-02-01T05:37:43;12.11;;;8.14;;
71172;SDS011;58875;51.996;4.504;2023-02-01T05:40:09;12.47;;;8.55;;
71172;SDS011;58875;51.996;4.504;2023-02-01T05:42:36;12.56;;;8.47;;
71172;SDS011;58875;51.996;4.504;2023-02-01T05:45:02;14.01;;;9.31;;
71172;SDS011;58875;51.996;4.504;2023-02-01T05:47:30;13.17;;;8.90;;
71172;SDS011;58875;51.996;4.504;2023-02-01T05:49:56;12.39;;;8.42;;
71172;SDS011;58875;51.996;4.504;2023-02-01T05:52:22;12.20;;;8.32;;
71172;SDS011;58875;51.996;4.504;2023-02-01T05:54:47;13.18;;;8.93;;
71172;SDS011;58875;51.996;4.504;2023-02-01T05:57:13;12.09;;;8.20;;
71172;SDS011;58875;51.996;4.504;2023-02-01T05:59:39;14.30;;;9.60;;
71172;SDS011;58875;51.996;4.504;2023-02-01T06:02:10;12.98;;;8.74;;
71172;SDS011;58875;51.996;4.504;2023-02-01T06:04:36;12.18;;;8.29;;
71172;SDS011;58875;51.996;4.504;2023-02-01T06:07:03;12.76;;;8.57;;
71172;SDS011;58875;51.996;4.504;2023-02-01T06:09:28;12.83;;;8.57;;
71172;SDS011;58875;51.996;4.504;2023-02-01T06:11:54;13.16;;;8.90;;
71172;SDS011;58875;51.996;4.504;2023-02-01T06:14:20;12.45;;;8.51;;
71172;SDS011;58875;51.996;4.504;2023-02-01T06:16:45;12.74;;;8.66;;
71172;SDS011;58875;51.996;4.504;2023-02-01T06:19:12;13.21;;;8.89;;
71172;SDS011;58875;51.996;4.504;2023-02-01T06:21:38;12.63;;;8.54;;
71172;SDS011;58875;51.996;4.504;2023-02-01T06:24:04;13.53;;;8.98;;
71172;SDS011;58875;51.996;4.504;2023-02-01T06:26:29;12.35;;;8.32;;
71172;SDS011;58875;51.996;4.504;2023-02-01T06:28:55;12.80;;;8.55;;
71172;SDS011;58875;51.996;4.504;2023-02-01T06:31:21;12.67;;;8.47;;
71172;SDS011;58875;51.996;4.504;2023-02-01T06:33:48;12.95;;;8.63;;
71172;SDS011;58875;51.996;4.504;2023-02-01T06:36:14;10.75;;;7.35;;
71172;SDS011;58875;51.996;4.504;2023-02-01T06:38:41;11.09;;;7.61;;
71172;SDS011;58875;51.996;4.504;2023-02-01T06:41:07;10.69;;;7.35;;
71172;SDS011;58875;51.996;4.504;2023-02-01T06:43:33;9.65;;;6.81;;
71172;SDS011;58875;51.996;4.504;2023-02-01T06:46:06;10.10;;;7.09;;
71172;SDS011;58875;51.996;4.504;2023-02-01T06:48:34;10.51;;;7.27;;
71172;SDS011;58875;51.996;4.504;2023-02-01T06:51:00;10.26;;;7.15;;
71172;SDS011;58875;51.996;4.504;2023-02-01T06:53:26;11.17;;;7.67;;
71172;SDS011;58875;51.996;4.504;2023-02-01T06:55:52;10.51;;;7.21;;
71172;SDS011;58875;51.996;4.504;2023-02-01T06:58:22;10.75;;;7.31;;
71172;SDS011;58875;51.996;4.504;2023-02-01T07:00:48;11.89;;;8.02;;
71172;SDS011;58875;51.996;4.504;2023-02-01T07:03:14;13.26;;;8.93;;
71172;SDS011;58875;51.996;4.504;2023-02-01T07:05:39;12.55;;;8.41;;
71172;SDS011;58875;51.996;4.504;2023-02-01T07:08:05;12.17;;;8.23;;
71172;SDS011;58875;51.996;4.504;2023-02-01T07:10:30;11.60;;;7.95;;
71172;SDS011;58875;51.996;4.504;2023-02-01T07:12:56;11.80;;;8.00;;
71172;SDS011;58875;51.996;4.504;2023-02-01T07:15:22;10.93;;;7.63;;
71172;SDS011;58875;51.996;4.504;2023-02-01T07:17:48;11.02;;;7.71;;
71172;SDS011;58875;51.996;4.504;2023-02-01T07:20:14;10.35;;;7.26;;
71172;SDS011;58875;51.996;4.504;2023-02-01T07:22:40;10.56;;;7.32;;
71172;SDS011;58875;51.996;4.504;2023-02-01T07:25:06;11.21;;;7.67;;
71172;SDS011;58875;51.996;4.504;2023-02-01T07:27:36;10.08;;;7.12;;
71172;SDS011;58875;51.996;4.504;2023-02-01T07:30:02;9.91;;;7.04;;
71172;SDS011;58875;51.996;4.504;2023-02-01T07:32:31;10.64;;;7.52;;
71172;SDS011;58875;51.996;4.504;2023-02-01T07:34:57;10.38;;;7.44;;
71172;SDS011;58875;51.996;4.504;2023-02-01T07:37:23;11.41;;;8.03;;
71172;SDS011;58875;51.996;4.504;2023-02-01T07:39:50;10.88;;;7.59;;
71172;SDS011;58875;51.996;4.504;2023-02-01T07:42:16;12.40;;;8.52;;
71172;SDS011;58875;51.996;4.504;2023-02-01T07:44:42;10.32;;;7.26;;
71172;SDS011;58875;51.996;4.504;2023-02-01T07:47:08;9.74;;;6.92;;
71172;SDS011;58875;51.996;4.504;2023-02-01T07:49:33;9.78;;;6.94;;
71172;SDS011;58875;51.996;4.504;2023-02-01T07:51:59;10.70;;;7.50;;
71172;SDS011;58875;51.996;4.504;2023-02-01T07:54:25;10.77;;;7.50;;
71172;SDS011;58875;51.996;4.504;2023-02-01T07:56:50;11.93;;;8.13;;
71172;SDS011;58875;51.996;4.504;2023-02-01T07:59:16;12.87;;;8.59;;
71172;SDS011;58875;51.996;4.504;2023-02-01T08:01:41;12.77;;;8.60;;
71172;SDS011;58875;51.996;4.504;2023-02-01T08:04:07;12.45;;;8.52;;
71172;SDS011;58875;51.996;4.504;2023-02-01T08:06:36;10.76;;;7.46;;
71172;SDS011;58875;51.996;4.504;2023-02-01T08:09:03;11.01;;;7.68;;
71172;SDS011;58875;51.996;4.504;2023-02-01T08:11:29;11.97;;;8.13;;
71172;SDS011;58875;51.996;4.504;2023-02-01T08:13:55;13.46;;;8.88;;
71172;SDS011;58875;51.996;4.504;2023-02-01T08:16:21;12.80;;;8.60;;
71172;SDS011;58875;51.996;4.504;2023-02-01T08:18:48;12.60;;;8.49;;
71172;SDS011;58875;51.996;4.504;2023-02-01T08:21:15;12.14;;;8.17;;
71172;SDS011;58875;51.996;4.504;2023-02-01T08:23:44;12.63;;;8.58;;
71172;SDS011;58875;51.996;4.504;2023-02-01T08:26:11;12.38;;;8.39;;
71172;SDS011;58875;51.996;4.504;2023-02-01T08:28:38;10.04;;;7.02;;
71172;SDS011;58875;51.996;4.504;2023-02-01T08:31:06;12.03;;;8.30;;
71172;SDS011;58875;51.996;4.504;2023-02-01T08:33:36;11.75;;;7.95;;
71172;SDS011;58875;51.996;4.504;2023-02-01T08:36:06;11.20;;;7.68;;
71172;SDS011;58875;51.996;4.504;2023-02-01T08:38:34;12.57;;;8.50;;
71172;SDS011;58875;51.996;4.504;2023-02-01T08:41:05;11.53;;;7.91;;
71172;SDS011;58875;51.996;4.504;2023-02-01T08:43:32;11.68;;;7.99;;
71172;SDS011;58875;51.996;4.504;2023-02-01T08:45:58;12.39;;;8.42;;
71172;SDS011;58875;51.996;4.504;2023-02-01T08:48:23;13.19;;;8.85;;
71172;SDS011;58875;51.996;4.504;2023-02-01T08:50:49;13.10;;;8.79;;
71172;SDS011;58875;51.996;4.504;2023-02-01T08:53:14;13.05;;;8.89;;
71172;SDS011;58875;51.996;4.504;2023-02-01T08:55:40;11.22;;;7.87;;
71172;SDS011;58875;51.996;4.504;2023-02-01T08:58:06;10.80;;;7.53;;
71172;SDS011;58875;51.996;4.504;2023-02-01T09:00:31;10.80;;;7.54;;
71172;SDS011;58875;51.996;4.504;2023-02-01T09:02:57;10.38;;;7.29;;
71172;SDS011;58875;51.996;4.504;2023-02-01T09:05:23;13.06;;;8.88;;
71172;SDS011;58875;51.996;4.504;2023-02-01T09:07:54;13.26;;;8.95;;
71172;SDS011;58875;51.996;4.504;2023-02-01T09:10:20;11.57;;;7.94;;
71172;SDS011;58875;51.996;4.504;2023-02-01T09:12:45;11.84;;;8.13;;
71172;SDS011;58875;51.996;4.504;2023-02-01T09:15:11;12.38;;;8.38;;
71172;SDS011;58875;51.996;4.504;2023-02-01T09:17:36;12.61;;;8.45;;
71172;SDS011;58875;51.996;4.504;2023-02-01T09:20:02;13.00;;;8.72;;
71172;SDS011;58875;51.996;4.504;2023-02-01T09:22:29;11.86;;;8.08;;
71172;SDS011;58875;51.996;4.504;2023-02-01T09:24:54;11.63;;;8.10;;
71172;SDS011;58875;51.996;4.504;2023-02-01T09:27:20;12.35;;;8.44;;
71172;SDS011;58875;51.996;4.504;2023-02-01T09:29:47;11.63;;;7.82;;
71172;SDS011;58875;51.996;4.504;2023-02-01T09:32:17;13.01;;;8.65;;
71172;SDS011;58875;51.996;4.504;2023-02-01T09:34:48;11.86;;;8.03;;
71172;SDS011;58875;51.996;4.504;2023-02-01T09:37:17;12.43;;;8.47;;
71172;SDS011;58875;51.996;4.504;2023-02-01T09:39:44;12.33;;;8.34;;
71172;SDS011;58875;51.996;4.504;2023-02-01T09:42:19;13.31;;;8.88;;
71172;SDS011;58875;51.996;4.504;2023-02-01T09:47:35;13.48;;;9.02;;
71172;SDS011;58875;51.996;4.504;2023-02-01T09:50:16;11.62;;;7.95;;
71172;SDS011;58875;51.996;4.504;2023-02-01T09:52:54;13.10;;;8.83;;
71172;SDS011;58875;51.996;4.504;2023-02-01T09:55:37;11.95;;;8.06;;
71172;SDS011;58875;51.996;4.504;2023-02-01T09:58:22;11.96;;;8.03;;
71172;SDS011;58875;51.996;4.504;2023-02-01T10:00:59;13.44;;;8.94;;
71172;SDS011;58875;51.996;4.504;2023-02-01T10:03:28;11.26;;;7.68;;
71172;SDS011;58875;51.996;4.504;2023-02-01T10:20:41;12.42;;;8.24;;
71172;SDS011;58875;51.996;4.504;2023-02-01T10:25:59;13.47;;;8.85;;
71172;SDS011;58875;51.996;4.504;2023-02-01T10:28:42;13.44;;;8.82;;
71172;SDS011;58875;51.996;4.504;2023-02-01T10:31:13;12.88;;;8.50;;
71172;SDS011;58875;51.996;4.504;2023-02-01T10:38:43;12.97;;;8.64;;
71172;SDS011;58875;51.996;4.504;2023-02-01T10:41:19;12.50;;;8.34;;
71172;SDS011;58875;51.996;4.504;2023-02-01T10:43:49;14.19;;;9.34;;
71172;SDS011;58875;51.996;4.504;2023-02-01T10:46:22;14.26;;;9.34;;
71172;SDS011;58875;51.996;4.504;2023-02-01T10:48:49;14.10;;;9.20;;
71172;SDS011;58875;51.996;4.504;2023-02-01T10:53:50;13.25;;;8.66;;
71172;SDS011;58875;51.996;4.504;2023-02-01T10:56:23;14.41;;;9.29;;
71172;SDS011;58875;51.996;4.504;2023-02-01T10:58:51;13.55;;;8.88;;
71172;SDS011;58875;51.996;4.504;2023-02-01T11:01:27;12.20;;;8.17;;
71172;SDS011;58875;51.996;4.504;2023-02-01T11:04:03;12.08;;;8.17;;
71172;SDS011;58875;51.996;4.504;2023-02-01T11:06:36;11.31;;;7.69;;
71172;SDS011;58875;51.996;4.504;2023-02-01T11:14:16;12.96;;;8.63;;
71172;SDS011;58875;51.996;4.504;2023-02-01T11:16:56;13.49;;;8.84;;
71172;SDS011;58875;51.996;4.504;2023-02-01T11:19:25;13.57;;;8.86;;
71172;SDS011;58875;51.996;4.504;2023-02-01T11:21:53;13.75;;;8.97;;
71172;SDS011;58875;51.996;4.504;2023-02-01T11:24:33;12.07;;;8.04;;
71172;SDS011;58875;51.996;4.504;2023-02-01T11:27:12;13.47;;;8.82;;
71172;SDS011;58875;51.996;4.504;2023-02-01T11:29:43;13.65;;;8.90;;
71172;SDS011;58875;51.996;4.504;2023-02-01T11:32:13;13.75;;;9.07;;
71172;SDS011;58875;51.996;4.504;2023-02-01T11:34:45;14.30;;;9.38;;
71172;SDS011;58875;51.996;4.504;2023-02-01T11:37:34;13.67;;;8.83;;
71172;SDS011;58875;51.996;4.504;2023-02-01T11:40:25;13.28;;;8.56;;
71172;SDS011;58875;51.996;4.504;2023-02-01T11:43:01;14.07;;;9.20;;
71172;SDS011;58875;51.996;4.504;2023-02-01T11:45:39;12.55;;;8.34;;
71172;SDS011;58875;51.996;4.504;2023-02-01T11:48:09;11.85;;;7.81;;
71172;SDS011;58875;51.996;4.504;2023-02-01T11:50:43;12.25;;;8.00;;
71172;SDS011;58875;51.996;4.504;2023-02-01T12:03:51;12.14;;;8.18;;
71172;SDS011;58875;51.996;4.504;2023-02-01T12:20:13;12.70;;;8.36;;
71172;SDS011;58875;51.996;4.504;2023-02-01T12:28:20;12.19;;;8.09;;
71172;SDS011;58875;51.996;4.504;2023-02-01T12:36:27;11.91;;;8.08;;
71172;SDS011;58875;51.996;4.504;2023-02-01T12:42:21;13.22;;;8.76;;
71172;SDS011;58875;51.996;4.504;2023-02-01T12:44:53;12.01;;;8.00;;
71172;SDS011;58875;51.996;4.504;2023-02-01T12:52:46;12.19;;;8.10;;
71172;SDS011;58875;51.996;4.504;2023-02-01T12:55:20;12.04;;;7.96;;
71172;SDS011;58875;51.996;4.504;2023-02-01T12:57:50;13.60;;;8.86;;
71172;SDS011;58875;51.996;4.504;2023-02-01T13:00:40;13.71;;;8.91;;
71172;SDS011;58875;51.996;4.504;2023-02-01T13:06:25;10.90;;;7.29;;
71172;SDS011;58875;51.996;4.504;2023-02-01T13:11:46;11.32;;;7.64;;
71172;SDS011;58875;51.996;4.504;2023-02-01T13:14:25;11.32;;;7.63;;
71172;SDS011;58875;51.996;4.504;2023-02-01T13:17:03;11.01;;;7.46;;
71172;SDS011;58875;51.996;4.504;2023-02-01T13:19:47;13.07;;;8.56;;
71172;SDS011;58875;51.996;4.504;2023-02-01T13:22:25;12.15;;;8.02;;
71172;SDS011;58875;51.996;4.504;2023-02-01T13:25:10;12.79;;;8.49;;
71172;SDS011;58875;51.996;4.504;2023-02-01T13:27:41;13.55;;;8.85;;
71172;SDS011;58875;51.996;4.504;2023-02-01T13:30:12;13.70;;;8.97;;
71172;SDS011;58875;51.996;4.504;2023-02-01T13:43:35;11.25;;;7.64;;
71172;SDS011;58875;51.996;4.504;2023-02-01T13:46:08;12.30;;;8.35;;
71172;SDS011;58875;51.996;4.504;2023-02-01T13:48:50;12.47;;;8.37;;
71172;SDS011;58875;51.996;4.504;2023-02-01T13:51:44;13.11;;;8.70;;
71172;SDS011;58875;51.996;4.504;2023-02-01T13:56:57;12.65;;;8.45;;
71172;SDS011;58875;51.996;4.504;2023-02-01T14:05:01;12.81;;;8.56;;
71172;SDS011;58875;51.996;4.504;2023-02-01T14:10:54;12.15;;;8.18;;
71172;SDS011;58875;51.996;4.504;2023-02-01T14:24:32;12.37;;;8.14;;
71172;SDS011;58875;51.996;4.504;2023-02-01T14:29:39;12.75;;;8.39;;
71172;SDS011;58875;51.996;4.504;2023-02-01T14:32:15;12.53;;;8.23;;
71172;SDS011;58875;51.996;4.504;2023-02-01T14:47:47;12.91;;;8.67;;
71172;SDS011;58875;51.996;4.504;2023-02-01T14:50:27;14.85;;;9.64;;
71172;SDS011;58875;51.996;4.504;2023-02-01T14:53:05;13.52;;;8.96;;
71172;SDS011;58875;51.996;4.504;2023-02-01T14:55:51;13.37;;;8.90;;
71172;SDS011;58875;51.996;4.504;2023-02-01T15:06:38;11.29;;;7.72;;
71172;SDS011;58875;51.996;4.504;2023-02-01T15:14:39;11.89;;;8.18;;
71172;SDS011;58875;51.996;4.504;2023-02-01T15:22:19;12.34;;;8.40;;
71172;SDS011;58875;51.996;4.504;2023-02-01T15:24:51;12.87;;;8.73;;
71172;SDS011;58875;51.996;4.504;2023-02-01T15:27:21;12.69;;;8.53;;
71172;SDS011;58875;51.996;4.504;2023-02-01T15:29:48;12.09;;;8.18;;
71172;SDS011;58875;51.996;4.504;2023-02-01T15:34:59;11.04;;;7.47;;
71172;SDS011;58875;51.996;4.504;2023-02-01T15:37:25;11.52;;;7.73;;
71172;SDS011;58875;51.996;4.504;2023-02-01T15:42:56;12.17;;;8.19;;
71172;SDS011;58875;51.996;4.504;2023-02-01T15:45:28;10.84;;;7.45;;
71172;SDS011;58875;51.996;4.504;2023-02-01T15:47:58;9.47;;;6.67;;
71172;SDS011;58875;51.996;4.504;2023-02-01T15:50:25;9.95;;;7.00;;
71172;SDS011;58875;51.996;4.504;2023-02-01T15:52:55;9.68;;;6.74;;
71172;SDS011;58875;51.996;4.504;2023-02-01T15:55:22;10.80;;;7.35;;
71172;SDS011;58875;51.996;4.504;2023-02-01T15:57:58;11.44;;;7.71;;
71172;SDS011;58875;51.996;4.504;2023-02-01T16:00:25;9.81;;;6.81;;
71172;SDS011;58875;51.996;4.504;2023-02-01T16:02:59;9.80;;;6.72;;
71172;SDS011;58875;51.996;4.504;2023-02-01T16:05:37;10.83;;;7.31;;
71172;SDS011;58875;51.996;4.504;2023-02-01T16:08:21;9.45;;;6.42;;
71172;SDS011;58875;51.996;4.504;2023-02-01T16:10:50;9.12;;;6.24;;
71172;SDS011;58875;51.996;4.504;2023-02-01T16:13:18;10.32;;;7.07;;
71172;SDS011;58875;51.996;4.504;2023-02-01T16:15:46;9.51;;;6.61;;
71172;SDS011;58875;51.996;4.504;2023-02-01T16:18:13;9.55;;;6.71;;
71172;SDS011;58875;51.996;4.504;2023-02-01T16:20:40;9.40;;;6.70;;
71172;SDS011;58875;51.996;4.504;2023-02-01T16:23:07;8.47;;;6.03;;
71172;SDS011;58875;51.996;4.504;2023-02-01T16:25:33;9.54;;;6.66;;
71172;SDS011;58875;51.996;4.504;2023-02-01T16:27:59;9.15;;;6.47;;
71172;SDS011;58875;51.996;4.504;2023-02-01T16:30:25;9.44;;;6.56;;
71172;SDS011;58875;51.996;4.504;2023-02-01T16:32:52;10.29;;;7.14;;
71172;SDS011;58875;51.996;4.504;2023-02-01T16:35:30;9.76;;;6.75;;
71172;SDS011;58875;51.996;4.504;2023-02-01T16:38:04;9.27;;;6.46;;
71172;SDS011;58875;51.996;4.504;2023-02-01T16:40:37;9.84;;;6.86;;
71172;SDS011;58875;51.996;4.504;2023-02-01T16:43:07;9.73;;;6.80;;
71172;SDS011;58875;51.996;4.504;2023-02-01T16:45:38;10.19;;;7.09;;
71172;SDS011;58875;51.996;4.504;2023-02-01T16:48:05;10.46;;;7.26;;
71172;SDS011;58875;51.996;4.504;2023-02-01T16:50:31;10.69;;;7.43;;
71172;SDS011;58875;51.996;4.504;2023-02-01T16:52:58;11.51;;;7.79;;
71172;SDS011;58875;51.996;4.504;2023-02-01T16:55:24;11.43;;;7.65;;
71172;SDS011;58875;51.996;4.504;2023-02-01T16:57:50;11.17;;;7.62;;
71172;SDS011;58875;51.996;4.504;2023-02-01T17:00:16;10.93;;;7.57;;
71172;SDS011;58875;51.996;4.504;2023-02-01T17:02:43;11.46;;;7.91;;
71172;SDS011;58875;51.996;4.504;2023-02-01T17:05:10;11.46;;;7.83;;
71172;SDS011;58875;51.996;4.504;2023-02-01T17:07:36;11.03;;;7.59;;
71172;SDS011;58875;51.996;4.504;2023-02-01T17:10:05;11.16;;;7.70;;
71172;SDS011;58875;51.996;4.504;2023-02-01T17:12:39;11.29;;;7.78;;
71172;SDS011;58875;51.996;4.504;2023-02-01T17:15:05;12.66;;;8.52;;
71172;SDS011;58875;51.996;4.504;2023-02-01T17:17:35;12.90;;;8.70;;
71172;SDS011;58875;51.996;4.504;2023-02-01T17:20:03;12.27;;;8.27;;
71172;SDS011;58875;51.996;4.504;2023-02-01T17:22:30;12.38;;;8.33;;
71172;SDS011;58875;51.996;4.504;2023-02-01T17:24:56;11.34;;;7.73;;
71172;SDS011;58875;51.996;4.504;2023-02-01T17:27:22;12.04;;;8.08;;
71172;SDS011;58875;51.996;4.504;2023-02-01T17:29:47;11.62;;;7.89;;
71172;SDS011;58875;51.996;4.504;2023-02-01T17:32:23;12.61;;;8.49;;
71172;SDS011;58875;51.996;4.504;2023-02-01T17:34:50;11.08;;;7.58;;
71172;SDS011;58875;51.996;4.504;2023-02-01T17:39:52;10.17;;;7.24;;
71172;SDS011;58875;51.996;4.504;2023-02-01T17:42:21;10.22;;;7.21;;
71172;SDS011;58875;51.996;4.504;2023-02-01T17:44:48;10.38;;;7.36;;
71172;SDS011;58875;51.996;4.504;2023-02-01T17:47:16;10.11;;;7.07;;
71172;SDS011;58875;51.996;4.504;2023-02-01T17:49:45;10.56;;;7.41;;
71172;SDS011;58875;51.996;4.504;2023-02-01T17:52:13;10.48;;;7.25;;
71172;SDS011;58875;51.996;4.504;2023-02-01T17:54:42;11.88;;;8.00;;
71172;SDS011;58875;51.996;4.504;2023-02-01T17:57:11;10.95;;;7.39;;
71172;SDS011;58875;51.996;4.504;2023-02-01T17:59:37;11.03;;;7.42;;
71172;SDS011;58875;51.996;4.504;2023-02-01T18:02:03;11.49;;;7.68;;
71172;SDS011;58875;51.996;4.504;2023-02-01T18:04:28;10.87;;;7.36;;